Terminal Aerodrome Forecast
Issued by NWS

Home | Current Version | Previous Version | Graphics & Text | Print | Product List | Glossary On
Versions: 1 2 3 4 5 6 7 8 9 10 11 12 13 14
000
FTUS43 KUNR 230400 AAB
TAFGCC
TAF AMD
KGCC 230438Z 2305/2324 26006KT P6SM VCTS SCT070CB OVC130
     FM230700 22005KT P6SM SCT060 OVC130
     FM231500 31014KT P6SM SCT250=

USA.gov is the U.S. government's official web portal to all federal, state and local government web resources and services.